Time;durP1;ratioP1;P1;durP2;ratioP2;P2;SDS_P1;SDS_P2;PMS_P1;PMS_P2;Temp;Humidity;BMP_temperature;BMP_pressure;BME280_temperature;BME280_humidity;BME280_pressure;Samples;Min_cycle;Max_cycle;Signal;HPM_P1;HPM_P2
2022/12/15 00:38:46;;;;;;;29.30;14.20;;;;;;;;;;5013407;28;20045;-81
2022/12/15 00:41:13;;;;;;;28.45;14.10;;;;;;;;;;5012524;28;20100;-81
2022/12/15 00:43:39;;;;;;;31.52;14.52;;;;;;;;;;5010948;28;20090;-80
2022/12/15 00:48:51;;;;;;;34.50;16.83;;;;;;;;;;5014392;28;20049;-81
2022/12/15 00:51:17;;;;;;;30.88;16.63;;;;;;;;;;5011359;28;20516;-80
2022/12/15 01:21:12;;;;;;;28.23;13.10;;;;;;;;;;5011756;28;20054;-81
2022/12/15 01:23:39;;;;;;;25.67;12.45;;;;;;;;;;4996004;28;20046;-81
2022/12/15 01:26:05;;;;;;;28.35;13.43;;;;;;;;;;4999445;28;20141;-81
2022/12/15 01:28:32;;;;;;;18.42;7.68;;;;;;;;;;5016091;28;20068;-81
2022/12/15 01:30:58;;;;;;;19.80;10.73;;;;;;;;;;5017304;28;20046;-81
2022/12/15 01:33:24;;;;;;;27.70;13.80;;;;;;;;;;5015647;28;20061;-81
2022/12/15 01:36:00;;;;;;;25.33;15.52;;;;;;;;;;5015062;28;20051;-81
2022/12/15 01:38:27;;;;;;;30.33;14.18;;;;;;;;;;5015313;28;20077;-81
2022/12/15 01:40:55;;;;;;;26.98;12.70;;;;;;;;;;4997933;28;20054;-81
2022/12/15 01:43:23;;;;;;;30.60;14.35;;;;;;;;;;4998158;28;20117;-81
2022/12/15 01:45:51;;;;;;;28.48;13.63;;;;;;;;;;4999231;28;20883;-81
2022/12/15 01:48:26;;;;;;;25.17;12.32;;;;;;;;;;4999691;28;20050;-81
2022/12/15 01:50:55;;;;;;;28.10;13.40;;;;;;;;;;5010763;28;20037;-81
2022/12/15 01:53:21;;;;;;;26.20;13.45;;;;;;;;;;5012572;28;20080;-80
2022/12/15 01:55:48;;;;;;;30.35;13.40;;;;;;;;;;5015673;28;20099;-81
2022/12/15 01:58:15;;;;;;;26.10;12.15;;;;;;;;;;5017001;28;20045;-81
2022/12/15 02:00:42;;;;;;;24.55;12.70;;;;;;;;;;5014080;28;20088;-81
2022/12/15 02:03:09;;;;;;;28.13;13.68;;;;;;;;;;4999110;28;20216;-81
2022/12/15 02:05:35;;;;;;;28.92;15.65;;;;;;;;;;4998415;28;20053;-81
2022/12/15 02:08:02;;;;;;;31.27;14.70;;;;;;;;;;5016412;28;20042;-81
2022/12/15 02:10:33;;;;;;;20.95;11.63;;;;;;;;;;5020698;28;20073;-81
2022/12/15 02:13:00;;;;;;;29.20;13.85;;;;;;;;;;5017846;28;20046;-80
2022/12/15 02:15:35;;;;;;;17.17;7.95;;;;;;;;;;4999531;28;20050;-81
2022/12/15 02:18:24;;;;;;;21.92;11.05;;;;;;;;;;5015499;28;20046;-81
2022/12/15 02:21:09;;;;;;;27.52;13.95;;;;;;;;;;5009188;28;20054;-81
2022/12/15 02:23:39;;;;;;;27.30;12.45;;;;;;;;;;5014731;28;20049;-81
2022/12/15 02:26:05;;;;;;;31.02;13.82;;;;;;;;;;4997829;28;20551;-81
2022/12/15 02:28:31;;;;;;;30.92;12.43;;;;;;;;;;5014340;28;20488;-81
2022/12/15 02:33:52;;;;;;;31.08;15.05;;;;;;;;;;5018072;28;20524;-81
2022/12/15 02:36:24;;;;;;;26.60;12.77;;;;;;;;;;4997135;28;20172;-80
2022/12/15 02:38:50;;;;;;;27.65;14.27;;;;;;;;;;4996367;28;20038;-81
2022/12/15 02:41:34;;;;;;;29.00;13.15;;;;;;;;;;4995845;28;20046;-81
2022/12/15 02:44:21;;;;;;;24.23;13.43;;;;;;;;;;5014305;28;20048;-80
2022/12/15 02:47:06;;;;;;;21.75;11.30;;;;;;;;;;5007513;28;20142;-81
2022/12/15 02:49:44;;;;;;;28.55;13.38;;;;;;;;;;5011570;28;20050;-80
2022/12/15 02:52:24;;;;;;;21.25;10.25;;;;;;;;;;4997544;28;20045;-81
2022/12/15 02:54:59;;;;;;;24.15;13.43;;;;;;;;;;5015112;28;20042;-80
2022/12/15 02:57:32;;;;;;;19.98;11.73;;;;;;;;;;5014900;28;20046;-81
2022/12/15 03:00:01;;;;;;;30.13;13.98;;;;;;;;;;4996497;28;20052;-81
2022/12/15 03:02:29;;;;;;;24.13;11.27;;;;;;;;;;5015114;28;20141;-81
2022/12/15 03:04:56;;;;;;;31.17;13.38;;;;;;;;;;5013306;28;20059;-80
2022/12/15 03:07:26;;;;;;;31.25;12.90;;;;;;;;;;4997671;28;20046;-81
2022/12/15 03:09:53;;;;;;;30.15;13.77;;;;;;;;;;4997227;28;20069;-81
2022/12/15 03:12:19;;;;;;;21.55;12.25;;;;;;;;;;5015719;28;20101;-81
2022/12/15 03:14:45;;;;;;;24.10;13.77;;;;;;;;;;5014142;28;20034;-81
2022/12/15 03:17:11;;;;;;;27.90;10.85;;;;;;;;;;5015971;28;20221;-82
2022/12/15 03:19:37;;;;;;;30.67;12.85;;;;;;;;;;5013438;28;20129;-81
2022/12/15 03:22:03;;;;;;;25.67;14.10;;;;;;;;;;5015218;28;20041;-81
2022/12/15 03:24:29;;;;;;;32.90;14.18;;;;;;;;;;5013589;28;20046;-81
2022/12/15 03:26:55;;;;;;;32.17;14.35;;;;;;;;;;4993674;28;20148;-81
2022/12/15 03:29:21;;;;;;;26.63;14.13;;;;;;;;;;5007602;28;20041;-81
2022/12/15 03:31:48;;;;;;;29.35;13.82;;;;;;;;;;5014558;28;20038;-81
2022/12/15 03:34:14;;;;;;;35.15;15.75;;;;;;;;;;4994918;28;20046;-82
2022/12/15 03:36:40;;;;;;;21.02;11.23;;;;;;;;;;4996429;28;20100;-81
2022/12/15 03:39:06;;;;;;;26.33;13.70;;;;;;;;;;5014778;28;20045;-81
2022/12/15 03:41:32;;;;;;;25.77;12.63;;;;;;;;;;5011980;28;20038;-81
2022/12/15 03:43:58;;;;;;;26.05;14.95;;;;;;;;;;4994407;28;21091;-81
2022/12/15 03:46:25;;;;;;;30.40;13.88;;;;;;;;;;4995927;28;20056;-81
2022/12/15 03:48:53;;;;;;;21.63;11.82;;;;;;;;;;5010802;28;20069;-81
2022/12/15 03:51:19;;;;;;;25.38;11.48;;;;;;;;;;5011527;28;20041;-81
2022/12/15 03:53:48;;;;;;;29.25;12.40;;;;;;;;;;5014535;28;20077;-81
2022/12/15 03:56:14;;;;;;;26.67;13.93;;;;;;;;;;5014666;28;20906;-81
2022/12/15 03:58:40;;;;;;;28.45;14.93;;;;;;;;;;5011835;28;20064;-81
2022/12/15 04:01:18;;;;;;;32.67;15.40;;;;;;;;;;4997154;28;20042;-81
2022/12/15 04:03:44;;;;;;;33.30;14.77;;;;;;;;;;4994235;28;20033;-81
2022/12/15 04:06:10;;;;;;;25.35;13.55;;;;;;;;;;5012156;28;20114;-81
2022/12/15 04:08:36;;;;;;;27.88;10.25;;;;;;;;;;5011649;28;20034;-81
2022/12/15 04:11:03;;;;;;;32.83;14.18;;;;;;;;;;4997337;28;20744;-81
2022/12/15 04:13:29;;;;;;;33.85;14.63;;;;;;;;;;5013175;28;20373;-81
2022/12/15 04:15:55;;;;;;;19.90;10.35;;;;;;;;;;5013963;28;20481;-81
2022/12/15 04:18:21;;;;;;;10.80;6.97;;;;;;;;;;5010151;28;20910;-81
2022/12/15 04:20:47;;;;;;;26.88;13.98;;;;;;;;;;4996388;28;20034;-81
2022/12/15 04:23:13;;;;;;;23.08;12.40;;;;;;;;;;5009562;28;20501;-81
2022/12/15 05:31:53;;;;;;;26.85;14.68;;;;;;;;;;5015262;28;20516;-81
2022/12/15 05:34:20;;;;;;;23.35;13.13;;;;;;;;;;5014023;28;20077;-81
2022/12/15 05:36:46;;;;;;;24.95;12.60;;;;;;;;;;5014252;28;21637;-81
2022/12/15 05:39:12;;;;;;;18.90;9.32;;;;;;;;;;5014833;28;20094;-81
2022/12/15 05:41:38;;;;;;;24.17;12.50;;;;;;;;;;5014826;28;20050;-81
2022/12/15 05:44:04;;;;;;;28.75;14.65;;;;;;;;;;4998889;28;20048;-81
2022/12/15 05:46:30;;;;;;;26.67;14.77;;;;;;;;;;4996877;28;20669;-81
2022/12/15 05:48:56;;;;;;;31.25;17.23;;;;;;;;;;5012249;28;21871;-81
2022/12/15 05:51:23;;;;;;;29.80;14.27;;;;;;;;;;5014236;28;20070;-81
2022/12/15 05:53:49;;;;;;;25.92;13.65;;;;;;;;;;5014224;28;20053;-80
2022/12/15 05:56:15;;;;;;;33.10;14.38;;;;;;;;;;4998289;28;20084;-82
2022/12/15 05:58:41;;;;;;;28.70;14.02;;;;;;;;;;5015998;28;20044;-81
2022/12/15 06:01:15;;;;;;;24.27;10.55;;;;;;;;;;5016381;28;20189;-81
2022/12/15 06:03:41;;;;;;;10.23;7.10;;;;;;;;;;4995661;28;20133;-81
2022/12/15 06:06:09;;;;;;;23.88;13.60;;;;;;;;;;5014822;28;20088;-81
2022/12/15 06:08:36;;;;;;;29.10;14.88;;;;;;;;;;5016281;28;20046;-81
2022/12/15 06:11:02;;;;;;;29.63;15.10;;;;;;;;;;5014727;28;20532;-81
2022/12/15 06:13:35;;;;;;;31.48;13.73;;;;;;;;;;5014233;28;20042;-80
2022/12/15 06:16:03;;;;;;;29.52;12.25;;;;;;;;;;4995351;28;20038;-81
2022/12/15 06:18:30;;;;;;;34.17;14.90;;;;;;;;;;4992963;28;20117;-77
2022/12/15 06:21:04;;;;;;;25.45;12.80;;;;;;;;;;4991481;28;20108;-82
2022/12/15 06:23:31;;;;;;;23.33;12.95;;;;;;;;;;5010303;28;20588;-78
2022/12/15 06:25:57;;;;;;;22.30;11.95;;;;;;;;;;4991459;28;20057;-78
2022/12/15 06:28:23;;;;;;;19.85;8.52;;;;;;;;;;5012464;28;20165;-78
2022/12/15 06:30:54;;;;;;;20.50;10.70;;;;;;;;;;5011730;28;20096;-78
2022/12/15 06:33:20;;;;;;;24.92;12.07;;;;;;;;;;5011190;28;20598;-77
2022/12/15 06:35:47;;;;;;;18.33;9.50;;;;;;;;;;5014546;28;20046;-78
2022/12/15 06:38:13;;;;;;;30.10;13.70;;;;;;;;;;5013805;28;20100;-78
2022/12/15 06:40:39;;;;;;;17.63;9.02;;;;;;;;;;5014186;28;20547;-78
2022/12/15 06:43:08;;;;;;;25.45;13.77;;;;;;;;;;5014915;28;20056;-79
2022/12/15 06:45:35;;;;;;;19.30;8.65;;;;;;;;;;5012842;28;20037;-79
2022/12/15 06:48:01;;;;;;;20.88;10.15;;;;;;;;;;5013250;28;20050;-78
2022/12/15 06:50:27;;;;;;;30.80;15.13;;;;;;;;;;5012401;28;20484;-78
2022/12/15 06:52:53;;;;;;;16.75;9.18;;;;;;;;;;4997343;28;20042;-78
2022/12/15 06:55:19;;;;;;;21.73;13.63;;;;;;;;;;5013482;28;20049;-79
2022/12/15 06:57:48;;;;;;;19.85;9.45;;;;;;;;;;5014694;28;20162;-79
2022/12/15 07:00:15;;;;;;;28.25;13.88;;;;;;;;;;5014784;28;20046;-79
2022/12/15 07:02:42;;;;;;;32.85;14.63;;;;;;;;;;5012126;28;20048;-78
2022/12/15 07:05:08;;;;;;;31.02;14.38;;;;;;;;;;5014207;28;20050;-79
2022/12/15 07:07:34;;;;;;;30.15;13.95;;;;;;;;;;4997802;28;20651;-79
2022/12/15 07:10:00;;;;;;;23.98;13.05;;;;;;;;;;4997638;28;20661;-79
2022/12/15 07:12:26;;;;;;;22.92;12.07;;;;;;;;;;4998137;28;20076;-79
2022/12/15 07:14:52;;;;;;;21.02;12.93;;;;;;;;;;5012762;28;20068;-78
2022/12/15 07:17:18;;;;;;;17.08;8.25;;;;;;;;;;4994135;28;20824;-78
2022/12/15 07:19:45;;;;;;;25.67;14.15;;;;;;;;;;5009426;28;20042;-77
2022/12/15 07:22:11;;;;;;;19.27;8.23;;;;;;;;;;5014584;28;20041;-77
2022/12/15 07:24:37;;;;;;;29.27;13.88;;;;;;;;;;5011123;28;20127;-77
2022/12/15 07:27:03;;;;;;;21.90;11.60;;;;;;;;;;4995382;28;20985;-78
2022/12/15 07:29:29;;;;;;;27.83;13.85;;;;;;;;;;5011168;28;20871;-77
2022/12/15 07:31:55;;;;;;;17.25;9.80;;;;;;;;;;4996402;28;20118;-78
2022/12/15 07:34:22;;;;;;;28.15;13.60;;;;;;;;;;5010360;28;20078;-78
2022/12/15 07:36:49;;;;;;;35.80;15.45;;;;;;;;;;4993329;28;20458;-78
2022/12/15 07:39:15;;;;;;;21.40;10.65;;;;;;;;;;5014868;28;20057;-78
2022/12/15 07:41:41;;;;;;;26.45;12.80;;;;;;;;;;5005603;28;20153;-78
2022/12/15 07:44:07;;;;;;;25.75;10.93;;;;;;;;;;5009979;28;20088;-77
2022/12/15 07:46:33;;;;;;;27.88;12.40;;;;;;;;;;5007796;28;20494;-78
2022/12/15 07:49:02;;;;;;;28.05;13.30;;;;;;;;;;5012831;28;20034;-77
2022/12/15 07:51:28;;;;;;;27.92;13.55;;;;;;;;;;5013357;28;20124;-77
2022/12/15 07:53:54;;;;;;;29.55;15.02;;;;;;;;;;5013881;28;20062;-78
2022/12/15 07:56:20;;;;;;;24.15;14.27;;;;;;;;;;5013710;28;20041;-78
2022/12/15 07:58:46;;;;;;;26.42;12.93;;;;;;;;;;4995422;28;20046;-78
2022/12/15 08:01:13;;;;;;;28.25;11.30;;;;;;;;;;5015662;28;20049;-78
2022/12/15 08:03:39;;;;;;;24.35;14.57;;;;;;;;;;5015937;28;20049;-78
2022/12/15 08:06:13;;;;;;;17.45;9.95;;;;;;;;;;4998174;28;20073;-78
2022/12/15 08:08:39;;;;;;;30.52;15.32;;;;;;;;;;5011568;28;20174;-82
2022/12/15 08:11:06;;;;;;;29.27;14.07;;;;;;;;;;4993683;28;20038;-79
2022/12/15 08:13:34;;;;;;;31.88;12.77;;;;;;;;;;5012619;28;20600;-79
2022/12/15 08:16:00;;;;;;;31.70;13.73;;;;;;;;;;5014430;28;20662;-79
2022/12/15 08:18:28;;;;;;;25.50;14.05;;;;;;;;;;5011900;28;20551;-79
2022/12/15 08:20:55;;;;;;;27.27;13.23;;;;;;;;;;4991483;28;20676;-79
2022/12/15 08:23:21;;;;;;;31.15;13.52;;;;;;;;;;5013013;28;20140;-79
2022/12/15 08:25:47;;;;;;;29.23;14.02;;;;;;;;;;4996282;28;20060;-79
2022/12/15 08:28:14;;;;;;;25.20;12.50;;;;;;;;;;5012922;28;20159;-79
2022/12/15 08:30:40;;;;;;;33.17;15.38;;;;;;;;;;5013041;28;20449;-79
2022/12/15 08:33:06;;;;;;;33.72;14.32;;;;;;;;;;5011728;28;20547;-79
2022/12/15 08:35:32;;;;;;;23.20;12.60;;;;;;;;;;5008580;28;20078;-79
2022/12/15 08:38:01;;;;;;;24.98;12.60;;;;;;;;;;5011557;28;20042;-79
2022/12/15 08:40:27;;;;;;;27.70;12.45;;;;;;;;;;4994951;28;20057;-78
2022/12/15 08:42:53;;;;;;;25.90;13.52;;;;;;;;;;5015070;28;20124;-79
2022/12/15 08:45:19;;;;;;;34.03;15.55;;;;;;;;;;4993157;28;20084;-79
2022/12/15 08:47:45;;;;;;;24.13;13.82;;;;;;;;;;5009560;28;20412;-79
2022/12/15 08:50:11;;;;;;;27.83;14.38;;;;;;;;;;5011122;28;20089;-79
2022/12/15 08:52:40;;;;;;;19.50;10.10;;;;;;;;;;5012459;28;20058;-79
2022/12/15 08:55:07;;;;;;;17.65;7.07;;;;;;;;;;4995635;28;20572;-79
2022/12/15 08:57:34;;;;;;;28.70;13.98;;;;;;;;;;5014134;28;20052;-79
2022/12/15 09:00:00;;;;;;;28.30;13.02;;;;;;;;;;5013793;28;20053;-79
2022/12/15 09:02:26;;;;;;;26.23;15.02;;;;;;;;;;5012899;28;20487;-79
2022/12/15 09:04:52;;;;;;;33.47;15.70;;;;;;;;;;5009501;28;20515;-78
2022/12/15 09:07:18;;;;;;;32.38;12.85;;;;;;;;;;5013161;28;20053;-79
2022/12/15 09:09:44;;;;;;;27.58;13.48;;;;;;;;;;5011850;28;20153;-79
2022/12/15 09:12:11;;;;;;;30.58;13.07;;;;;;;;;;4994569;28;20042;-79
2022/12/15 09:14:37;;;;;;;32.85;14.85;;;;;;;;;;5012545;28;20072;-79
2022/12/15 09:17:03;;;;;;;30.25;16.58;;;;;;;;;;5012937;28;20068;-78
2022/12/15 09:19:29;;;;;;;25.52;16.20;;;;;;;;;;4994980;28;20065;-79
2022/12/15 09:21:55;;;;;;;33.40;15.48;;;;;;;;;;5008721;28;20153;-79
2022/12/15 09:24:23;;;;;;;27.83;14.70;;;;;;;;;;5010091;28;20057;-78
2022/12/15 09:26:49;;;;;;;31.60;13.90;;;;;;;;;;5008409;28;20054;-79
2022/12/15 09:29:15;;;;;;;28.33;14.43;;;;;;;;;;5011991;28;20399;-79
2022/12/15 09:31:43;;;;;;;31.38;14.07;;;;;;;;;;5005307;28;20045;-78
2022/12/15 09:34:12;;;;;;;18.30;11.27;;;;;;;;;;4993856;28;20046;-79
2022/12/15 09:36:39;;;;;;;27.75;15.00;;;;;;;;;;4994289;28;20054;-95
2022/12/15 09:39:05;;;;;;;29.50;14.27;;;;;;;;;;5008674;28;20038;-78
2022/12/15 09:41:33;;;;;;;27.85;11.73;;;;;;;;;;5009869;28;20041;-78
2022/12/15 09:44:13;;;;;;;34.22;15.63;;;;;;;;;;5008872;28;20937;-78
2022/12/15 09:46:39;;;;;;;30.88;14.75;;;;;;;;;;5013807;28;20065;-78
2022/12/15 09:49:13;;;;;;;17.40;11.32;;;;;;;;;;5013465;28;22306;-78
2022/12/15 09:51:41;;;;;;;31.40;14.57;;;;;;;;;;5014893;28;20038;-78
2022/12/15 09:54:08;;;;;;;27.33;12.88;;;;;;;;;;5013412;28;20046;-78
2022/12/15 09:56:39;;;;;;;19.88;11.20;;;;;;;;;;5011399;28;20050;-79
2022/12/15 09:59:12;;;;;;;29.90;15.15;;;;;;;;;;5012131;28;20050;-78
2022/12/15 10:01:44;;;;;;;24.75;14.65;;;;;;;;;;5013584;28;20042;-78
2022/12/15 10:04:14;;;;;;;30.05;14.57;;;;;;;;;;5012849;28;20046;-79
2022/12/15 10:06:52;;;;;;;28.60;15.95;;;;;;;;;;4989470;28;20055;-79
2022/12/15 10:09:18;;;;;;;29.73;14.68;;;;;;;;;;4975703;28;20050;-79
2022/12/15 10:12:03;;;;;;;19.75;10.15;;;;;;;;;;4973935;28;20039;-78
2022/12/15 10:14:39;;;;;;;24.15;13.00;;;;;;;;;;4971456;28;20042;-78
2022/12/15 10:17:11;;;;;;;30.05;14.13;;;;;;;;;;4970213;28;20054;-79
2022/12/15 10:19:44;;;;;;;22.77;13.65;;;;;;;;;;4973750;28;20153;-79
2022/12/15 10:22:21;;;;;;;22.98;12.73;;;;;;;;;;4972629;28;20045;-79
2022/12/15 10:24:47;;;;;;;14.02;7.60;;;;;;;;;;4974746;28;20595;-78
2022/12/15 10:27:20;;;;;;;28.52;14.82;;;;;;;;;;4988126;28;20608;-78
2022/12/15 10:29:48;;;;;;;27.02;13.35;;;;;;;;;;4974655;28;20865;-78
2022/12/15 10:32:16;;;;;;;24.80;10.98;;;;;;;;;;4974394;28;20038;-79
2022/12/15 10:34:42;;;;;;;38.80;18.45;;;;;;;;;;4971416;28;20038;-78
2022/12/15 10:37:13;;;;;;;22.98;9.98;;;;;;;;;;4973390;28;21641;-77
2022/12/15 10:39:43;;;;;;;32.53;14.13;;;;;;;;;;4973533;28;20043;-78
2022/12/15 10:42:14;;;;;;;28.17;12.23;;;;;;;;;;4973095;28;20042;-77
2022/12/15 10:44:41;;;;;;;22.83;10.68;;;;;;;;;;4987698;28;20034;-77
2022/12/15 10:47:31;;;;;;;29.23;13.50;;;;;;;;;;4972183;28;20553;-77
2022/12/15 10:50:16;;;;;;;24.17;13.00;;;;;;;;;;4965783;28;20053;-77
2022/12/15 10:52:42;;;;;;;24.65;12.55;;;;;;;;;;4973765;28;20054;-77
2022/12/15 10:55:31;;;;;;;26.85;12.52;;;;;;;;;;4973680;28;20138;-77
2022/12/15 10:58:02;;;;;;;20.95;11.25;;;;;;;;;;4971405;28;20570;-77
2022/12/15 11:00:29;;;;;;;28.60;14.02;;;;;;;;;;4973387;28;20138;-76
2022/12/15 11:02:56;;;;;;;23.23;12.18;;;;;;;;;;4976374;28;20130;-77
2022/12/15 11:05:22;;;;;;;24.60;12.13;;;;;;;;;;4973899;28;20954;-77
2022/12/15 11:07:56;;;;;;;24.83;9.52;;;;;;;;;;4976040;28;20568;-77
2022/12/15 11:10:26;;;;;;;28.13;12.93;;;;;;;;;;4969012;28;20539;-77
2022/12/15 11:13:11;;;;;;;26.80;13.80;;;;;;;;;;4972895;28;20544;-77
2022/12/15 11:15:39;;;;;;;25.55;14.82;;;;;;;;;;4969156;28;20142;-76
2022/12/15 11:18:10;;;;;;;19.75;9.32;;;;;;;;;;4983505;28;20455;-77
2022/12/15 11:21:02;;;;;;;24.10;13.70;;;;;;;;;;4973928;28;20039;-77
2022/12/15 11:23:28;;;;;;;19.25;9.20;;;;;;;;;;4970584;28;20571;-77
2022/12/15 11:25:57;;;;;;;23.65;12.38;;;;;;;;;;4974051;28;20117;-77
2022/12/15 11:28:32;;;;;;;22.65;12.18;;;;;;;;;;4973035;28;20055;-77
2022/12/15 11:31:30;;;;;;;25.27;13.07;;;;;;;;;;4974238;28;20184;-77
2022/12/15 11:33:56;;;;;;;22.55;9.45;;;;;;;;;;4941088;28;20046;-76
2022/12/15 11:36:22;;;;;;;30.35;14.48;;;;;;;;;;4991072;28;20551;-76
2022/12/15 11:38:48;;;;;;;20.17;9.38;;;;;;;;;;4990636;28;20050;-76
2022/12/15 11:41:21;;;;;;;19.15;12.85;;;;;;;;;;4976807;28;20130;-76
2022/12/15 11:43:47;;;;;;;;;;;;;;;;;;4991225;28;20042;-76
2022/12/15 11:46:21;;;;;;;17.67;9.70;;;;;;;;;;4989258;28;19972;-76
2022/12/15 11:49:07;;;;;;;16.33;9.32;;;;;;;;;;4974931;28;20097;-76
2022/12/15 11:51:42;;;;;;;20.20;11.02;;;;;;;;;;4975258;28;20149;-76
2022/12/15 11:54:18;;;;;;;26.60;12.18;;;;;;;;;;4976705;28;20109;-76
2022/12/15 11:57:02;;;;;;;22.95;10.35;;;;;;;;;;4975917;28;20697;-76
2022/12/15 11:59:44;;;;;;;28.27;13.73;;;;;;;;;;4975768;28;20047;-76
2022/12/15 12:02:23;;;;;;;21.70;12.55;;;;;;;;;;4975731;28;20042;-76
2022/12/15 12:05:01;;;;;;;27.17;11.85;;;;;;;;;;4982452;28;20055;-76
2022/12/15 12:07:27;;;;;;;25.50;12.75;;;;;;;;;;5016370;28;20044;-76
2022/12/15 12:10:04;;;;;;;17.85;9.18;;;;;;;;;;4997339;28;20375;-76
2022/12/15 12:12:36;;;;;;;18.90;9.82;;;;;;;;;;5016626;28;20038;-76
2022/12/15 12:15:12;;;;;;;23.10;10.13;;;;;;;;;;5014664;28;20185;-76
2022/12/15 12:17:44;;;;;;;23.08;11.52;;;;;;;;;;5016266;28;20050;-76
2022/12/15 12:20:10;;;;;;;;;;;;;;;;;;5015880;28;20086;-76
2022/12/15 12:22:38;;;;;;;14.43;7.53;;;;;;;;;;5015364;28;19975;-76
2022/12/15 12:25:05;;;;;;;16.45;8.55;;;;;;;;;;5014826;28;20623;-76
2022/12/15 12:27:38;;;;;;;23.77;11.52;;;;;;;;;;5016226;28;20054;-76
2022/12/15 12:30:04;;;;;;;21.23;7.53;;;;;;;;;;5014487;28;20042;-77
2022/12/15 12:32:33;;;;;;;23.20;11.65;;;;;;;;;;5015026;28;20045;-77
2022/12/15 12:34:59;;;;;;;23.65;12.15;;;;;;;;;;5015193;28;20046;-77
2022/12/15 12:37:25;;;;;;;9.55;7.90;;;;;;;;;;5014262;28;20042;-76
2022/12/15 12:39:53;;;;;;;20.95;10.48;;;;;;;;;;5014963;28;20152;-77
2022/12/15 12:42:22;;;;;;;12.90;7.68;;;;;;;;;;4997424;28;20093;-77
2022/12/15 12:44:48;;;;;;;23.38;13.00;;;;;;;;;;5015583;28;20046;-77
2022/12/15 12:47:29;;;;;;;23.40;9.98;;;;;;;;;;4997567;28;20052;-76
2022/12/15 12:50:02;;;;;;;25.20;10.73;;;;;;;;;;5014061;28;20058;-77
2022/12/15 12:52:32;;;;;;;22.00;11.30;;;;;;;;;;5015040;28;20039;-77
2022/12/15 12:55:04;;;;;;;15.20;8.63;;;;;;;;;;4997790;28;20053;-77
2022/12/15 12:57:34;;;;;;;20.70;11.60;;;;;;;;;;5011562;28;20034;-77
2022/12/15 13:00:01;;;;;;;22.38;12.25;;;;;;;;;;4993275;28;20504;-77
2022/12/15 13:02:28;;;;;;;14.35;7.50;;;;;;;;;;5013281;28;20616;-77
2022/12/15 13:04:58;;;;;;;21.38;11.50;;;;;;;;;;5013202;28;20516;-77
2022/12/15 13:07:29;;;;;;;14.75;9.15;;;;;;;;;;5013720;28;20205;-77
2022/12/15 13:10:07;;;;;;;11.52;6.78;;;;;;;;;;5012275;28;20635;-77
2022/12/15 13:12:35;;;;;;;13.13;7.03;;;;;;;;;;5011498;28;20057;-77
2022/12/15 13:15:05;;;;;;;14.82;7.43;;;;;;;;;;5012462;28;20444;-77
2022/12/15 13:17:37;;;;;;;12.75;7.32;;;;;;;;;;5013458;28;20054;-77
2022/12/15 13:20:06;;;;;;;15.75;7.15;;;;;;;;;;5014353;28;20587;-77
2022/12/15 13:22:41;;;;;;;18.63;10.40;;;;;;;;;;5013719;28;21271;-77
2022/12/15 13:25:26;;;;;;;17.42;7.72;;;;;;;;;;5017530;28;20049;-77
2022/12/15 13:27:53;;;;;;;16.27;7.50;;;;;;;;;;5018646;28;20045;-77
2022/12/15 13:30:19;;;;;;;19.25;9.32;;;;;;;;;;5018264;28;20184;-77
2022/12/15 13:32:52;;;;;;;16.58;8.45;;;;;;;;;;5014288;28;20096;-77
2022/12/15 13:35:19;;;;;;;13.05;7.05;;;;;;;;;;5016818;28;20050;-77
2022/12/15 13:37:51;;;;;;;12.88;8.13;;;;;;;;;;4999032;28;20038;-77
2022/12/15 13:40:34;;;;;;;13.93;7.90;;;;;;;;;;5015921;28;20089;-77
2022/12/15 13:43:03;;;;;;;8.05;5.25;;;;;;;;;;5016974;28;20046;-77
2022/12/15 13:45:41;;;;;;;12.13;6.80;;;;;;;;;;5015246;28;20046;-77
2022/12/15 13:48:20;;;;;;;15.02;7.00;;;;;;;;;;5014942;28;20038;-77
2022/12/15 13:51:04;;;;;;;14.00;7.20;;;;;;;;;;5016137;28;20503;-77
2022/12/15 13:53:38;;;;;;;12.25;7.00;;;;;;;;;;5017223;28;20037;-77
2022/12/15 13:56:10;;;;;;;7.18;4.63;;;;;;;;;;5015523;28;20069;-76
2022/12/15 13:58:41;;;;;;;17.83;7.22;;;;;;;;;;5016750;28;20846;-78
2022/12/15 14:01:18;;;;;;;10.93;5.93;;;;;;;;;;5016610;28;20080;-76
2022/12/15 14:04:04;;;;;;;12.52;7.88;;;;;;;;;;5015718;28;20465;-76
2022/12/15 14:06:35;;;;;;;15.45;7.68;;;;;;;;;;5016170;28;20180;-77
2022/12/15 14:09:01;;;;;;;13.52;6.43;;;;;;;;;;5015478;28;20072;-77
2022/12/15 14:11:30;;;;;;;15.77;7.60;;;;;;;;;;5010964;28;20099;-76
2022/12/15 14:13:58;;;;;;;15.25;5.63;;;;;;;;;;5015965;28;20076;-76
2022/12/15 14:16:25;;;;;;;13.20;6.63;;;;;;;;;;5017712;28;20034;-77
2022/12/15 14:19:03;;;;;;;13.52;6.68;;;;;;;;;;5016207;28;20049;-77
2022/12/15 14:21:30;;;;;;;14.02;6.35;;;;;;;;;;5013955;28;20092;-77
2022/12/15 14:23:59;;;;;;;13.50;6.70;;;;;;;;;;4998369;28;20042;-79
2022/12/15 14:26:29;;;;;;;13.55;6.45;;;;;;;;;;5014651;28;20065;-79
2022/12/15 14:29:00;;;;;;;14.75;6.30;;;;;;;;;;5015649;28;20042;-80
2022/12/15 14:31:26;;;;;;;7.57;5.25;;;;;;;;;;5015779;28;21598;-79
2022/12/15 14:34:12;;;;;;;12.98;7.13;;;;;;;;;;5014742;28;20091;-76
2022/12/15 14:36:40;;;;;;;12.60;7.00;;;;;;;;;;5015783;28;20042;-77
2022/12/15 14:39:07;;;;;;;15.57;7.22;;;;;;;;;;5014043;28;20520;-78
2022/12/15 14:41:38;;;;;;;12.40;5.97;;;;;;;;;;5015959;28;20348;-78
2022/12/15 14:44:05;;;;;;;12.25;4.32;;;;;;;;;;5015457;28;20055;-76
2022/12/15 14:46:32;;;;;;;13.60;6.07;;;;;;;;;;5013657;28;20042;-78
2022/12/15 14:49:05;;;;;;;12.27;6.38;;;;;;;;;;5012783;28;20471;-77
2022/12/15 14:51:40;;;;;;;9.55;4.95;;;;;;;;;;5014370;28;20049;-79
2022/12/15 14:54:06;;;;;;;7.50;4.35;;;;;;;;;;5013691;28;20046;-76
2022/12/15 14:56:32;;;;;;;8.85;4.32;;;;;;;;;;5014358;28;20038;-77
2022/12/15 14:59:17;;;;;;;13.38;5.82;;;;;;;;;;5011413;28;20042;-77
2022/12/15 15:01:58;;;;;;;14.13;6.68;;;;;;;;;;5013440;28;20049;-78
2022/12/15 15:04:27;;;;;;;6.25;4.47;;;;;;;;;;5015218;28;20064;-77
2022/12/15 15:06:55;;;;;;;9.90;5.57;;;;;;;;;;5018507;28;20065;-76
2022/12/15 15:09:21;;;;;;;10.73;5.15;;;;;;;;;;5017330;28;20160;-77
2022/12/15 15:11:48;;;;;;;12.65;5.60;;;;;;;;;;5017066;28;20961;-77
2022/12/15 15:14:18;;;;;;;14.90;5.22;;;;;;;;;;5017437;28;20038;-77
2022/12/15 15:16:44;;;;;;;13.55;6.10;;;;;;;;;;5017255;28;20110;-77
2022/12/15 15:19:16;;;;;;;16.60;6.97;;;;;;;;;;5017113;28;20551;-77
2022/12/15 15:21:42;;;;;;;13.80;8.13;;;;;;;;;;5017893;28;20706;-78
2022/12/15 15:24:11;;;;;;;15.25;7.30;;;;;;;;;;5016989;28;20049;-78
2022/12/15 15:26:41;;;;;;;5.75;3.50;;;;;;;;;;5016188;28;20042;-78
2022/12/15 15:29:26;;;;;;;8.85;5.72;;;;;;;;;;5020279;28;20052;-78
2022/12/15 15:31:53;;;;;;;13.10;7.88;;;;;;;;;;5026325;28;20089;-78
2022/12/15 15:34:19;;;;;;;13.70;6.82;;;;;;;;;;5025484;28;20045;-77
2022/12/15 15:36:45;;;;;;;10.13;6.50;;;;;;;;;;5021886;28;20157;-77
2022/12/15 15:39:15;;;;;;;15.35;6.13;;;;;;;;;;5020499;28;20049;-77
2022/12/15 15:41:41;;;;;;;10.90;5.45;;;;;;;;;;5019985;28;20046;-77
2022/12/15 15:44:14;;;;;;;12.88;6.13;;;;;;;;;;5020917;28;20113;-77
2022/12/15 15:46:51;;;;;;;12.48;6.45;;;;;;;;;;5019717;28;20767;-77
2022/12/15 15:49:19;;;;;;;11.55;5.85;;;;;;;;;;5020724;28;20109;-77
2022/12/15 15:51:45;;;;;;;13.30;5.63;;;;;;;;;;5019516;28;20041;-77
2022/12/15 15:54:13;;;;;;;15.23;6.95;;;;;;;;;;5020951;28;21093;-77
2022/12/15 15:56:40;;;;;;;13.98;6.60;;;;;;;;;;5020369;28;20045;-77
2022/12/15 15:59:11;;;;;;;17.33;5.47;;;;;;;;;;5015992;28;20094;-77
2022/12/15 16:01:37;;;;;;;15.98;5.53;;;;;;;;;;5016738;28;20053;-77
2022/12/15 16:04:05;;;;;;;13.00;7.30;;;;;;;;;;5013738;28;20046;-77
2022/12/15 16:06:31;;;;;;;11.40;5.15;;;;;;;;;;5016838;28;20533;-77
2022/12/15 16:08:58;;;;;;;9.02;5.15;;;;;;;;;;5017269;28;20045;-77
2022/12/15 16:11:25;;;;;;;15.30;5.72;;;;;;;;;;5015483;28;20049;-77
2022/12/15 16:13:52;;;;;;;5.65;3.90;;;;;;;;;;5017315;28;20038;-77
2022/12/15 16:16:19;;;;;;;15.98;6.13;;;;;;;;;;5015264;28;20049;-77
2022/12/15 16:18:45;;;;;;;12.38;4.25;;;;;;;;;;5015465;28;20048;-77
2022/12/15 16:21:15;;;;;;;15.40;7.75;;;;;;;;;;5014231;28;20046;-77
2022/12/15 16:23:43;;;;;;;16.55;7.68;;;;;;;;;;5016243;28;20038;-77
2022/12/15 16:26:13;;;;;;;17.75;6.80;;;;;;;;;;5014590;28;20038;-77
2022/12/15 16:28:39;;;;;;;13.30;6.20;;;;;;;;;;5014637;28;20666;-77
2022/12/15 16:31:05;;;;;;;16.65;7.95;;;;;;;;;;5015470;28;20050;-77
2022/12/15 16:33:31;;;;;;;14.80;6.95;;;;;;;;;;5014162;28;20042;-77
2022/12/15 16:35:58;;;;;;;12.95;6.25;;;;;;;;;;5013479;28;20457;-77
2022/12/15 16:38:25;;;;;;;11.45;5.43;;;;;;;;;;5014486;28;20598;-77
2022/12/15 16:40:52;;;;;;;8.05;4.95;;;;;;;;;;5014897;28;20046;-77
2022/12/15 16:43:19;;;;;;;12.00;5.25;;;;;;;;;;5013764;28;20556;-77
2022/12/15 16:45:47;;;;;;;10.43;5.22;;;;;;;;;;5014072;28;20050;-78
2022/12/15 16:48:13;;;;;;;12.13;6.07;;;;;;;;;;5013877;28;20111;-77
2022/12/15 16:50:41;;;;;;;12.77;6.35;;;;;;;;;;4996950;28;20104;-77
2022/12/15 16:53:19;;;;;;;6.63;4.13;;;;;;;;;;5013500;28;20602;-77